Language selection

Features

My Weather Profile Weather Topics  | 

Atlantic - Newfoundland: Past 24 Hour Conditions

 

Mary's Harbour

09:30 PM NST 28 January 2020
Disclaimer

This table is a summary of hourly weather conditions for the past 24 hours.
Please note that these observations might not always be representative of weather conditions over their associated marine area.

Date / Time
(NST)
Wind(knots) Conditions Visibility(km) Pressure(kPa) Air tempC) Relative humidity(%) Dew pointC) Wind Chill
28 January 2020
21:30 WNW 4 Cloudy 16 100.5 -11 84 -14 -16
20:30 NW 4 Cloudy 16 100.5 -11 83 -14 -16
19:30 W 3 Cloudy 16 100.6 -11 83 -14 -14
18:30 WNW 5 Cloudy 16 100.6 -11 83 -14 -16
17:30 NW 9 Cloudy 16 100.6 -11 83 -14 -19
16:30 NNW 9 Light Snow 16 100.6 -11 81 -14 -18
15:30 NNW 9 gust 16 Light Snow 16 100.6 -10 80 -13 -18
14:30 NNW 11 gust 16 Light Snow 16 100.6 -10 81 -13 -18
13:30 NNW 12 gust 18 Light Snow 16 100.6 -10 81 -13 -18
12:30 NNW 12 gust 19 Light Snow 16 100.7 -10 83 -13 -18
11:30 NW 13 gust 20 Light Snow 16 100.7 -10 84 -13 -19
10:30 NNW 15 Light Snow 16 100.8 -11 84 -13 -20
9:30 NNW 15 gust 20 Light Snow 16 100.7 -10 83 -13 -20
8:30 NNW 11 gust 18 Light Snow 16 100.7 -10 84 -13 -18
7:30 N 16 Cloudy 16 100.7 -10 84 -12 -19
6:30 N 12 gust 18 Light Snow 16 100.6 -9 85 -11 -17
5:30 NNW 15 gust 20 Light Snow 16 100.6 -9 86 -11 -18
4:30 N 15 gust 21 Cloudy 16 100.5 -8 85 -11 -17
3:30 NNW 13 gust 23 Cloudy 16 100.5 -8 85 -10 -16
2:30 NNW 17 gust 26 Light Snow 16 100.5 -8 85 -10 -17
1:30 NNW 12 gust 20 Mostly Cloudy 16 100.5 -8 84 -10 -16
0:30 NNW 12 gust 22 Light Snow 16 100.5 -8 84 -10 -15
27 January 2020
23:30 NNW 12 gust 19 Light Snow 11 100.5 -8 84 -10 -15
22:30 N 15 gust 23 Light Snow 16 100.4 -7 85 -9 -16
21:30 N 17 gust 25 Light Snow 15 100.4 -7 84 -9 -16

Zoom-in to make a selection

Map of Atlantic - Newfoundland marine weather areas Banquereau - 44139 Blanc-Sablon Airport Cap Whittle Chevery Natashquan Airport Heath Point Îles de la Madeleine Airport Miscou Island Eskasoni (First Nations) Grand Étang Ingonish Beach North Mountain St.Paul Island J.A. Douglas McCurdy Sydney Airport Charlottetown Airport East Point North Cape Argentia Bonavista Burgeo Cape Race Corner Brook Daniel's Harbour Englee Ferolle Point La Scie Port aux Basques Rocky Harbour Sagona Island St. Anthony Airport St. John's Int'l Airport St. Lawrence Stephenville Airport Twillingate Winterland Branch Hill Wreckhouse Grates Cove Pool's Island Marticot Island Long Pond Cartwright Airport Mary's Harbour
Legend:
buoy Buoy
land station Land Station

Atlantic - Newfoundland Area

Another Region

What we are doing

Date modified: